createdAt,value
2023-01-22T00:01:28.459Z,13.30
2023-01-22T00:04:55.569Z,15.60
2023-01-22T00:08:22.684Z,17.80
2023-01-22T00:11:49.751Z,14.00
2023-01-22T00:15:17.105Z,12.90
2023-01-22T00:18:45.164Z,13.80
2023-01-22T00:22:12.728Z,14.30
2023-01-22T00:25:39.771Z,12.80
2023-01-22T00:29:07.429Z,14.70
2023-01-22T00:32:35.139Z,11.00
2023-01-22T00:36:07.144Z,14.10
2023-01-22T00:39:34.119Z,8.80
2023-01-22T00:43:01.135Z,13.00
2023-01-22T00:46:28.623Z,8.70
2023-01-22T00:49:55.624Z,10.70
2023-01-22T00:53:22.691Z,17.30
2023-01-22T00:56:49.881Z,10.00
2023-01-22T01:00:18.951Z,12.10
2023-01-22T01:03:47.543Z,12.60
2023-01-22T01:07:14.712Z,14.10
2023-01-22T01:10:44.630Z,11.60
2023-01-22T01:14:12.017Z,13.80
2023-01-22T01:17:41.417Z,14.40
2023-01-22T01:21:09.275Z,12.40
2023-01-22T01:24:37.284Z,15.60
2023-01-22T01:28:05.350Z,10.90
2023-01-22T01:31:32.707Z,17.00
2023-01-22T01:34:59.991Z,14.60
2023-01-22T01:38:26.915Z,14.10
2023-01-22T01:41:54.053Z,10.80
2023-01-22T01:45:30.339Z,14.30
2023-01-22T01:48:57.929Z,9.50
2023-01-22T01:52:24.922Z,14.20
2023-01-22T01:55:53.051Z,18.30
2023-01-22T01:59:22.745Z,19.10
2023-01-22T02:02:51.652Z,11.70
2023-01-22T02:06:20.780Z,17.90
2023-01-22T02:09:48.009Z,14.60
2023-01-22T02:13:21.442Z,12.30
2023-01-22T02:16:48.667Z,17.10
2023-01-22T02:20:16.693Z,13.00
2023-01-22T02:23:44.108Z,17.10
2023-01-22T02:27:11.275Z,18.10
2023-01-22T02:30:38.363Z,18.80
2023-01-22T02:34:06.061Z,18.70
2023-01-22T02:41:01.510Z,20.70
2023-01-22T02:44:30.616Z,15.80
2023-01-22T02:47:57.762Z,19.00
2023-01-22T02:51:26.668Z,20.50
2023-01-22T02:54:53.833Z,22.60
2023-01-22T02:58:20.787Z,25.10
2023-01-22T03:01:47.967Z,15.00
2023-01-22T03:05:16.024Z,20.70
2023-01-22T03:08:42.969Z,19.80
2023-01-22T03:12:10.843Z,17.70
2023-01-22T03:15:58.140Z,21.50
2023-01-22T03:19:44.086Z,17.50
2023-01-22T03:23:17.783Z,17.30
2023-01-22T03:26:44.733Z,20.20
2023-01-22T03:30:13.992Z,17.30
2023-01-22T03:37:08.058Z,18.60
2023-01-22T03:40:35.903Z,21.10
2023-01-22T03:44:03.708Z,18.10
2023-01-22T03:47:33.619Z,18.30
2023-01-22T03:54:34.204Z,21.70
2023-01-22T03:58:03.642Z,15.90
2023-01-22T04:01:32.285Z,21.10
2023-01-22T04:04:59.496Z,19.50
2023-01-22T04:08:27.839Z,20.40
2023-01-22T04:11:55.382Z,23.90
2023-01-22T04:15:22.860Z,17.60
2023-01-22T04:18:51.248Z,24.80
2023-01-22T04:22:38.415Z,23.30
2023-01-22T04:26:07.141Z,24.80
2023-01-22T04:29:34.757Z,23.70
2023-01-22T04:33:02.059Z,32.10
2023-01-22T04:36:43.556Z,33.50
2023-01-22T04:40:13.291Z,22.60
2023-01-22T04:47:06.655Z,18.30
2023-01-22T04:50:35.767Z,19.40
2023-01-22T04:54:02.926Z,17.60
2023-01-22T04:57:30.073Z,19.10
2023-01-22T05:00:59.583Z,23.90
2023-01-22T05:04:27.827Z,22.50
2023-01-22T05:07:54.958Z,20.90
2023-01-22T05:11:22.698Z,17.70
2023-01-22T05:14:54.123Z,18.90
2023-01-22T05:18:21.593Z,21.50
2023-01-22T05:25:18.593Z,19.10
2023-01-22T05:28:46.930Z,21.90
2023-01-22T05:32:30.659Z,15.90
2023-01-22T05:36:02.667Z,25.90
2023-01-22T05:39:29.833Z,21.90
2023-01-22T05:42:59.175Z,22.00
2023-01-22T05:46:27.593Z,23.60
2023-01-22T05:50:24.284Z,21.60
2023-01-22T05:54:01.804Z,22.00
2023-01-22T05:57:35.227Z,21.30
2023-01-22T06:01:02.462Z,23.10
2023-01-22T06:04:32.562Z,26.30
2023-01-22T06:08:01.158Z,21.80
2023-01-22T06:11:33.315Z,24.90
2023-01-22T06:15:00.456Z,25.80
2023-01-22T06:18:28.516Z,24.80
2023-01-22T06:21:56.133Z,24.20
2023-01-22T06:25:31.580Z,25.30
2023-01-22T06:29:06.506Z,26.10
2023-01-22T06:32:34.177Z,22.80
2023-01-22T06:36:01.425Z,28.40
2023-01-22T06:39:28.609Z,22.30
2023-01-22T06:43:10.804Z,25.60
2023-01-22T06:46:38.516Z,26.70
2023-01-22T06:50:10.959Z,24.90
2023-01-22T06:53:38.071Z,24.40
2023-01-22T06:57:05.606Z,24.10
2023-01-22T07:00:35.197Z,19.10
2023-01-22T07:04:02.225Z,24.00
2023-01-22T07:07:29.349Z,24.10
2023-01-22T07:10:56.304Z,23.80
2023-01-22T07:14:35.903Z,24.90
2023-01-22T07:18:03.911Z,22.70
2023-01-22T07:21:31.456Z,25.10
2023-01-22T07:24:58.419Z,25.50
2023-01-22T07:28:25.932Z,28.60
2023-01-22T07:31:53.533Z,25.40
2023-01-22T07:35:21.056Z,27.00
2023-01-22T07:38:47.957Z,27.20
2023-01-22T07:42:16.064Z,27.40
2023-01-22T07:45:43.605Z,29.00
2023-01-22T07:49:12.208Z,26.10
2023-01-22T07:52:39.047Z,24.20
2023-01-22T07:56:07.612Z,23.00
2023-01-22T07:59:35.800Z,31.00
2023-01-22T08:03:03.303Z,21.80
2023-01-22T08:06:30.292Z,29.20
2023-01-22T08:09:57.199Z,27.40
2023-01-22T08:13:24.134Z,26.80
2023-01-22T08:16:51.131Z,31.30
2023-01-22T08:20:19.030Z,31.10
2023-01-22T08:23:49.165Z,33.50
2023-01-22T08:27:16.627Z,30.10
2023-01-22T08:30:46.652Z,31.20
2023-01-22T08:34:14.292Z,28.80
2023-01-22T08:37:43.921Z,23.90
2023-01-22T08:44:36.631Z,32.80
2023-01-22T08:48:04.381Z,28.50
2023-01-22T08:51:33.097Z,30.30
2023-01-22T08:55:00.293Z,30.70
2023-01-22T08:58:28.032Z,32.20
2023-01-22T09:01:54.975Z,25.10
2023-01-22T09:05:22.082Z,32.90
2023-01-22T09:08:48.980Z,32.20
2023-01-22T09:12:16.028Z,34.70
2023-01-22T09:15:44.119Z,34.40
2023-01-22T09:19:11.867Z,32.10
2023-01-22T09:22:38.848Z,35.60
2023-01-22T09:26:06.082Z,34.20
2023-01-22T09:29:33.068Z,39.10
2023-01-22T09:33:00.263Z,47.00
2023-01-22T09:36:27.359Z,40.10
2023-01-22T09:39:54.629Z,39.20
2023-01-22T09:43:28.222Z,36.60
2023-01-22T09:47:00.060Z,32.00
2023-01-22T09:50:30.138Z,33.40
2023-01-22T09:54:01.643Z,39.30
2023-01-22T09:57:32.520Z,36.10
2023-01-22T10:01:02.128Z,37.60
2023-01-22T10:08:06.875Z,29.40
2023-01-22T10:11:33.769Z,37.30
2023-01-22T10:15:01.155Z,34.90
2023-01-22T10:18:42.653Z,38.60
2023-01-22T10:22:17.466Z,27.20
2023-01-22T10:25:45.884Z,34.30
2023-01-22T10:29:27.038Z,34.00
2023-01-22T10:33:05.210Z,32.50
2023-01-22T10:36:32.959Z,35.50
2023-01-22T10:40:01.924Z,35.30
2023-01-22T10:43:35.645Z,36.90
2023-01-22T10:47:20.730Z,33.20
2023-01-22T10:51:00.126Z,28.40
2023-01-22T10:54:31.201Z,36.20
2023-01-22T10:58:03.125Z,33.90
2023-01-22T11:01:36.752Z,33.60
2023-01-22T11:05:19.409Z,39.00
2023-01-22T11:08:54.615Z,36.30
2023-01-22T11:12:26.923Z,25.80
2023-01-22T11:16:01.915Z,31.30
2023-01-22T11:19:40.473Z,27.70
2023-01-22T11:23:19.443Z,33.00
2023-01-22T11:27:23.696Z,33.50
2023-01-22T11:31:08.365Z,31.90
2023-01-22T11:34:49.860Z,28.40
2023-01-22T11:38:24.063Z,29.40
2023-01-22T11:42:01.951Z,29.90
2023-01-22T11:45:41.572Z,34.00
2023-01-22T11:49:22.318Z,28.50
2023-01-22T11:52:54.704Z,24.50
2023-01-22T11:56:33.484Z,31.00
2023-01-22T12:00:30.040Z,25.40
2023-01-22T12:04:15.522Z,21.30
2023-01-22T12:07:56.828Z,25.70
2023-01-22T12:11:39.359Z,14.50
2023-01-22T12:15:19.576Z,23.70
2023-01-22T12:19:23.966Z,26.90
2023-01-22T12:22:58.389Z,30.30
2023-01-22T12:26:31.703Z,20.50
2023-01-22T12:30:04.519Z,31.30
2023-01-22T12:33:34.864Z,27.80
2023-01-22T12:37:05.218Z,25.30
2023-01-22T12:40:59.242Z,28.20
2023-01-22T12:44:41.875Z,29.00
2023-01-22T12:48:20.687Z,30.00
2023-01-22T12:51:49.377Z,44.60
2023-01-22T12:55:33.127Z,34.20
2023-01-22T12:59:00.915Z,30.90
2023-01-22T13:02:39.234Z,50.70
2023-01-22T13:06:19.404Z,36.40
2023-01-22T13:09:46.802Z,37.00
2023-01-22T13:13:26.808Z,41.50
2023-01-22T13:17:00.670Z,45.70
2023-01-22T13:20:30.369Z,38.90
2023-01-22T13:27:29.363Z,36.60
2023-01-22T13:31:02.315Z,47.10
2023-01-22T13:34:30.269Z,42.30
2023-01-22T13:37:57.559Z,48.40
2023-01-22T13:41:31.365Z,43.20
2023-01-22T13:44:59.954Z,40.40
2023-01-22T13:48:28.542Z,44.60
2023-01-22T13:51:57.910Z,34.80
2023-01-22T13:55:27.034Z,42.00
2023-01-22T13:59:05.948Z,44.90
2023-01-22T14:02:35.936Z,43.60
2023-01-22T14:06:12.901Z,37.00
2023-01-22T14:09:41.880Z,43.20
2023-01-22T14:13:11.651Z,32.20
2023-01-22T14:16:44.942Z,38.80
2023-01-22T14:20:15.387Z,52.40
2023-01-22T14:23:44.007Z,47.60
2023-01-22T14:27:13.412Z,47.70
2023-01-22T14:30:42.169Z,49.30
2023-01-22T14:34:12.576Z,42.40
2023-01-22T14:37:46.679Z,43.10
2023-01-22T14:41:16.371Z,42.60
2023-01-22T14:48:15.631Z,40.90
2023-01-22T14:51:44.408Z,35.80
2023-01-22T14:55:13.611Z,45.30
2023-01-22T14:58:41.977Z,47.70
2023-01-22T15:02:13.424Z,41.40
2023-01-22T15:05:43.339Z,38.70
2023-01-22T15:09:12.300Z,52.70
2023-01-22T15:12:40.992Z,64.50
2023-01-22T15:16:11.351Z,77.20
2023-01-22T15:19:41.633Z,77.00
2023-01-22T15:23:11.179Z,57.40
2023-01-22T15:26:40.456Z,49.90
2023-01-22T15:30:13.084Z,48.00
2023-01-22T15:33:43.456Z,44.20
2023-01-22T15:37:14.924Z,70.40
2023-01-22T15:40:44.968Z,65.30
2023-01-22T15:44:16.744Z,58.40
2023-01-22T15:47:49.470Z,45.90
2023-01-22T15:51:19.484Z,50.30
2023-01-22T15:54:48.842Z,52.20
2023-01-22T15:58:16.785Z,72.10
2023-01-22T16:01:44.752Z,59.40
2023-01-22T16:05:14.048Z,55.80
2023-01-22T16:08:43.450Z,48.00
2023-01-22T16:12:12.469Z,52.80
2023-01-22T16:15:40.718Z,52.40
2023-01-22T16:19:13.385Z,50.70
2023-01-22T16:22:42.703Z,44.20
2023-01-22T16:26:14.882Z,43.90
2023-01-22T16:29:45.019Z,46.00
2023-01-22T16:33:24.846Z,47.40
2023-01-22T16:36:55.549Z,42.90
2023-01-22T16:40:25.196Z,57.00
2023-01-22T16:43:57.391Z,61.80
2023-01-22T16:47:27.572Z,49.40
2023-01-22T16:50:57.666Z,41.60
2023-01-22T16:54:29.424Z,44.00
2023-01-22T16:58:00.945Z,43.40
2023-01-22T17:01:33.538Z,49.70
2023-01-22T17:05:03.129Z,48.60
2023-01-22T17:12:01.049Z,47.90
2023-01-22T17:15:35.908Z,43.40
2023-01-22T17:19:09.403Z,37.00
2023-01-22T17:22:38.955Z,41.40
2023-01-22T17:26:11.381Z,35.70
2023-01-22T17:29:42.133Z,35.10
2023-01-22T17:36:47.511Z,36.40
2023-01-22T17:40:18.227Z,37.10
2023-01-22T17:43:50.866Z,35.40
2023-01-22T17:47:20.486Z,41.60
2023-01-22T17:54:17.272Z,38.50
2023-01-22T17:57:47.284Z,37.30
2023-01-22T18:01:18.426Z,32.40
2023-01-22T18:04:47.786Z,39.60
2023-01-22T18:08:17.552Z,40.90
2023-01-22T18:11:47.810Z,37.50
2023-01-22T18:15:18.215Z,38.30
2023-01-22T18:18:48.363Z,42.30
2023-01-22T18:22:17.546Z,42.80
2023-01-22T18:25:50.469Z,42.70
2023-01-22T18:29:20.485Z,40.80
2023-01-22T18:36:18.985Z,30.90
2023-01-22T18:39:48.355Z,42.80
2023-01-22T18:43:19.408Z,42.30
2023-01-22T18:46:51.896Z,43.00
2023-01-22T18:50:22.112Z,42.20
2023-01-22T18:53:51.892Z,37.40
2023-01-22T18:57:21.450Z,39.90
2023-01-22T19:00:50.816Z,41.20
2023-01-22T19:04:22.213Z,43.70
2023-01-22T19:07:52.257Z,41.80
2023-01-22T19:11:22.159Z,42.20
2023-01-22T19:14:53.803Z,40.40
2023-01-22T19:18:23.019Z,44.50
2023-01-22T19:21:56.377Z,33.30
2023-01-22T19:25:25.662Z,34.50
2023-01-22T19:28:58.708Z,37.40
2023-01-22T19:32:30.428Z,37.10
2023-01-22T19:35:59.828Z,46.20
2023-01-22T19:39:29.603Z,39.60
2023-01-22T19:42:59.120Z,39.60
2023-01-22T19:49:56.961Z,37.00
2023-01-22T19:56:54.739Z,42.00
2023-01-22T20:00:25.874Z,42.40
2023-01-22T20:03:57.685Z,38.50
2023-01-22T20:07:28.461Z,35.50
2023-01-22T20:11:03.850Z,49.60
2023-01-22T20:14:38.940Z,45.60
2023-01-22T20:18:08.942Z,40.60
2023-01-22T20:21:38.439Z,52.60
2023-01-22T20:25:09.816Z,48.60
2023-01-22T20:28:39.624Z,46.70
2023-01-22T20:32:09.846Z,42.60
2023-01-22T20:35:41.645Z,38.00
2023-01-22T20:39:11.494Z,41.50
2023-01-22T20:42:41.012Z,47.10
2023-01-22T20:49:39.323Z,42.90
2023-01-22T20:53:09.086Z,42.10
2023-01-22T20:56:39.570Z,39.90
2023-01-22T21:00:11.305Z,43.70
2023-01-22T21:03:40.757Z,43.60
2023-01-22T21:10:37.638Z,40.50
2023-01-22T21:14:09.464Z,33.30
2023-01-22T21:17:42.113Z,41.80
2023-01-22T21:21:12.475Z,41.50
2023-01-22T21:24:42.508Z,43.80
2023-01-22T21:28:12.967Z,41.70
2023-01-22T21:31:42.605Z,35.10
2023-01-22T21:38:40.258Z,34.90
2023-01-22T21:42:26.639Z,26.70
2023-01-22T21:46:12.689Z,39.70
2023-01-22T21:49:43.105Z,36.80
2023-01-22T21:53:12.800Z,33.30
2023-01-22T22:00:07.696Z,36.30
2023-01-22T22:03:35.469Z,31.10
2023-01-22T22:07:02.521Z,33.60
2023-01-22T22:10:29.720Z,39.40
2023-01-22T22:13:57.545Z,36.20
2023-01-22T22:17:24.626Z,35.80
2023-01-22T22:20:51.855Z,34.30
2023-01-22T22:24:18.933Z,35.40
2023-01-22T22:27:46.162Z,37.50
2023-01-22T22:31:14.610Z,37.70
2023-01-22T22:34:41.776Z,40.00
2023-01-22T22:38:08.789Z,39.50
2023-01-22T22:41:38.654Z,39.30
2023-01-22T22:45:06.743Z,36.70
2023-01-22T22:48:34.083Z,37.30
2023-01-22T22:52:01.059Z,33.90
2023-01-22T22:55:28.722Z,32.60
2023-01-22T22:58:56.500Z,40.10
2023-01-22T23:02:24.094Z,39.10
2023-01-22T23:05:51.558Z,35.90
2023-01-22T23:09:20.961Z,38.10
2023-01-22T23:12:48.017Z,36.90
2023-01-22T23:16:18.211Z,39.10
2023-01-22T23:19:45.368Z,31.80
2023-01-22T23:23:12.331Z,39.30
2023-01-22T23:26:40.209Z,32.40
2023-01-22T23:30:09.744Z,32.40
2023-01-22T23:37:02.236Z,31.20
2023-01-22T23:40:29.496Z,35.70
2023-01-22T23:43:56.464Z,35.20
2023-01-22T23:47:27.054Z,33.40
2023-01-22T23:50:55.106Z,29.50
2023-01-22T23:54:22.641Z,33.30
2023-01-22T23:57:49.793Z,29.00
